Norfolk, Virginia
Traffic Map
Current Weather Conditions
Norfolk, Virginia
Overcast Haze
Overcast
16°
Feels Like: 16°
Wind Chill: 16° Ceiling: 200
Heat Index: 16° Visibility: 0.75mi
Dew Point: 15° Wind: 16mph
Humidity: 93% Direction: 50° (NE)
Pressure: 29.89in Gusts: 21mph
Raw Report DataKORF 241851Z 05014G18KT 3/4SM R05/2800V3500FT BR OVC002 16/15 A2989 RMK AO2 SFC VIS 1 RAB21E40 SLP120 P0000 T01610150
Traffic Incident Summary
Active as of:
Severity:
Category:
InformationThere was an issue retrieving the traffic information for this location. Please try a different location or try again shortly.
Advertisements
Track Severe Weather on mobile